createdAt,value
2023-01-25T00:00:31.197Z,13.98
2023-01-25T00:05:34.077Z,14.05
2023-01-25T00:10:39.256Z,14.77
2023-01-25T00:15:41.981Z,13.73
2023-01-25T00:20:44.736Z,14.23
2023-01-25T00:25:48.980Z,13.40
2023-01-25T00:30:52.062Z,13.95
2023-01-25T00:35:57.924Z,14.57
2023-01-25T00:41:02.125Z,13.88
2023-01-25T00:46:05.085Z,14.35
2023-01-25T00:51:08.121Z,13.68
2023-01-25T00:56:12.285Z,14.27
2023-01-25T01:01:16.238Z,13.63
2023-01-25T01:06:19.097Z,13.43
2023-01-25T01:11:23.276Z,13.98
2023-01-25T01:16:27.628Z,13.00
2023-01-25T01:21:30.345Z,11.45
2023-01-25T01:26:34.635Z,12.57
2023-01-25T01:31:37.761Z,12.10
2023-01-25T01:36:57.093Z,11.98
2023-01-25T01:42:01.397Z,11.45
2023-01-25T01:47:04.622Z,10.57
2023-01-25T01:52:14.193Z,10.63
2023-01-25T01:57:22.728Z,9.60
2023-01-25T02:02:27.561Z,11.35
2023-01-25T02:07:35.116Z,10.02
2023-01-25T02:12:40.273Z,9.63
2023-01-25T02:17:44.006Z,9.70
2023-01-25T02:22:55.636Z,9.88
2023-01-25T02:28:04.865Z,10.57
2023-01-25T02:33:07.658Z,9.05
2023-01-25T02:38:14.189Z,9.95
2023-01-25T02:43:19.424Z,9.70
2023-01-25T02:48:22.297Z,10.25
2023-01-25T02:53:27.487Z,9.88
2023-01-25T02:58:31.661Z,9.82
2023-01-25T03:03:35.495Z,11.18
2023-01-25T03:08:38.554Z,9.77
2023-01-25T03:13:42.922Z,10.70
2023-01-25T03:18:46.105Z,10.68
2023-01-25T03:23:55.289Z,10.48
2023-01-25T03:29:01.348Z,10.73
2023-01-25T03:34:04.468Z,11.90
2023-01-25T03:39:11.626Z,11.77
2023-01-25T03:44:19.056Z,10.60
2023-01-25T03:49:23.180Z,11.80
2023-01-25T03:54:27.327Z,12.27
2023-01-25T03:59:31.629Z,12.13
2023-01-25T04:04:35.132Z,12.63
2023-01-25T04:09:38.672Z,12.20
2023-01-25T04:14:45.130Z,11.68
2023-01-25T04:19:55.202Z,10.93
2023-01-25T04:25:02.715Z,10.90
2023-01-25T04:30:09.359Z,11.63
2023-01-25T04:35:13.346Z,10.55
2023-01-25T04:40:17.133Z,9.88
2023-01-25T04:45:23.421Z,9.50
2023-01-25T04:50:26.643Z,11.18
2023-01-25T04:55:32.174Z,11.48
2023-01-25T05:00:37.987Z,13.43
2023-01-25T05:05:46.277Z,13.15
2023-01-25T05:10:50.852Z,12.60
2023-01-25T05:16:13.402Z,12.52
2023-01-25T05:21:30.433Z,13.07
2023-01-25T05:26:50.891Z,12.73
2023-01-25T05:31:55.589Z,12.25
2023-01-25T05:36:58.867Z,12.55
2023-01-25T05:42:02.124Z,12.80
2023-01-25T05:47:06.495Z,13.40
2023-01-25T05:52:13.689Z,12.55
2023-01-25T05:57:17.530Z,12.23
2023-01-25T06:02:22.456Z,12.55
2023-01-25T06:07:25.616Z,13.30
2023-01-25T06:12:30.807Z,11.00
2023-01-25T06:17:36.493Z,11.90
2023-01-25T06:23:02.920Z,11.68
2023-01-25T06:28:06.450Z,11.25
2023-01-25T06:33:10.634Z,11.73
2023-01-25T06:38:13.517Z,11.60
2023-01-25T06:43:16.385Z,11.75
2023-01-25T06:48:20.536Z,12.25
2023-01-25T06:53:23.472Z,11.70
2023-01-25T06:58:27.017Z,12.35
2023-01-25T07:03:31.665Z,12.30
2023-01-25T07:08:35.672Z,12.20
2023-01-25T07:13:38.499Z,11.68
2023-01-25T07:18:43.174Z,12.07
2023-01-25T07:23:46.351Z,12.75
2023-01-25T07:28:50.138Z,13.45
2023-01-25T07:33:56.002Z,12.65
2023-01-25T07:39:00.215Z,13.90
2023-01-25T07:44:03.081Z,13.82
2023-01-25T07:49:21.231Z,14.05
2023-01-25T07:54:24.018Z,15.43
2023-01-25T07:59:27.320Z,14.70
2023-01-25T08:04:31.651Z,14.07
2023-01-25T08:09:34.440Z,14.13
2023-01-25T08:14:38.368Z,14.52
2023-01-25T08:19:42.437Z,14.27
2023-01-25T08:24:45.222Z,14.55
2023-01-25T08:29:48.024Z,13.32
2023-01-25T08:34:52.100Z,14.27
2023-01-25T08:39:57.086Z,14.60
2023-01-25T08:44:59.833Z,13.85
2023-01-25T08:50:04.677Z,14.68
2023-01-25T08:55:08.418Z,13.90
2023-01-25T09:00:13.494Z,13.80
2023-01-25T09:05:17.741Z,14.98
2023-01-25T09:10:20.992Z,15.07
2023-01-25T09:15:23.843Z,15.20
2023-01-25T09:20:28.723Z,16.38
2023-01-25T09:25:32.208Z,15.75
2023-01-25T09:30:46.251Z,15.68
2023-01-25T09:36:00.671Z,14.95
2023-01-25T09:41:25.173Z,16.65
2023-01-25T09:46:40.807Z,21.60
2023-01-25T09:52:01.663Z,17.85
2023-01-25T09:57:05.257Z,18.48
2023-01-25T10:02:27.086Z,19.25
2023-01-25T10:07:39.905Z,18.88
2023-01-25T10:12:42.774Z,20.45
2023-01-25T10:17:46.120Z,20.63
2023-01-25T10:22:53.428Z,21.45
2023-01-25T10:28:10.037Z,21.90
2023-01-25T10:33:18.671Z,21.75
2023-01-25T10:38:29.251Z,20.63
2023-01-25T10:43:32.159Z,20.10
2023-01-25T10:48:37.445Z,20.48
2023-01-25T10:53:43.357Z,19.58
2023-01-25T10:58:48.857Z,21.27
2023-01-25T11:03:51.584Z,19.80
2023-01-25T11:08:55.681Z,20.77
2023-01-25T11:13:58.926Z,18.98
2023-01-25T11:19:03.687Z,19.33
2023-01-25T11:24:18.978Z,19.83
2023-01-25T11:29:24.334Z,20.25
2023-01-25T11:34:31.034Z,19.77
2023-01-25T11:39:47.769Z,20.75
2023-01-25T11:45:16.819Z,18.50
2023-01-25T11:55:30.208Z,17.80
2023-01-25T12:00:45.900Z,17.70
2023-01-25T12:06:01.647Z,17.27
2023-01-25T12:11:13.319Z,15.90
2023-01-25T12:16:31.036Z,16.33
2023-01-25T12:21:47.146Z,16.58
2023-01-25T12:27:01.509Z,16.08
2023-01-25T12:32:09.111Z,16.05
2023-01-25T12:37:18.383Z,16.07
2023-01-25T12:42:26.966Z,16.70
2023-01-25T12:47:36.189Z,17.48
2023-01-25T12:52:46.987Z,15.77
2023-01-25T12:58:00.110Z,15.65
2023-01-25T13:03:12.973Z,15.05
2023-01-25T13:08:31.680Z,16.45
2023-01-25T13:13:36.493Z,16.33
2023-01-25T13:18:42.444Z,16.48
2023-01-25T13:23:47.833Z,17.05
2023-01-25T13:28:53.012Z,18.25
2023-01-25T13:33:55.889Z,17.88
2023-01-25T13:38:58.607Z,18.75
2023-01-25T13:44:33.189Z,18.77
2023-01-25T13:49:44.427Z,17.27
2023-01-25T13:54:48.857Z,18.58
2023-01-25T14:00:10.109Z,17.90
2023-01-25T14:05:20.942Z,17.55
2023-01-25T14:10:27.740Z,19.20
2023-01-25T14:15:33.836Z,20.45
2023-01-25T14:20:36.602Z,20.40
2023-01-25T14:25:41.626Z,21.33
2023-01-25T14:30:51.047Z,19.73
2023-01-25T14:36:00.029Z,19.35
2023-01-25T14:41:13.563Z,20.80
2023-01-25T14:46:36.460Z,20.77
2023-01-25T14:51:44.498Z,20.90
2023-01-25T14:56:49.356Z,21.60
2023-01-25T15:01:55.556Z,20.90
2023-01-25T15:07:01.134Z,20.90
2023-01-25T15:12:29.170Z,21.35
2023-01-25T15:17:44.451Z,20.95
2023-01-25T15:22:47.198Z,19.42
2023-01-25T15:27:50.298Z,25.92
2023-01-25T15:32:54.674Z,22.42
2023-01-25T15:37:57.502Z,19.95
2023-01-25T15:43:00.235Z,18.67
2023-01-25T15:48:04.525Z,19.75
2023-01-25T15:53:07.421Z,18.85
2023-01-25T15:58:14.012Z,18.10
2023-01-25T16:03:21.357Z,19.55
2023-01-25T16:08:24.181Z,18.95
2023-01-25T16:13:26.980Z,21.08
2023-01-25T16:18:31.105Z,19.05
2023-01-25T16:23:34.151Z,18.42
2023-01-25T16:28:36.961Z,18.40
2023-01-25T16:33:41.498Z,17.67
2023-01-25T16:38:44.803Z,16.55
2023-01-25T16:43:49.703Z,17.60
2023-01-25T16:48:54.052Z,17.58
2023-01-25T16:53:58.996Z,17.42
2023-01-25T16:59:04.170Z,17.58
2023-01-25T17:04:09.043Z,15.85
2023-01-25T17:09:22.878Z,17.02
2023-01-25T17:14:27.078Z,18.35
2023-01-25T17:19:31.448Z,19.30
2023-01-25T17:24:35.836Z,19.95
2023-01-25T17:29:38.573Z,17.98
2023-01-25T17:34:42.756Z,18.75
2023-01-25T17:39:45.477Z,20.35
2023-01-25T17:44:48.203Z,20.08
2023-01-25T17:49:52.606Z,20.63
2023-01-25T17:54:55.394Z,21.73
2023-01-25T17:59:58.159Z,20.75
2023-01-25T18:05:02.314Z,22.73
2023-01-25T18:10:06.007Z,21.40
2023-01-25T18:15:09.835Z,20.67
2023-01-25T18:20:14.789Z,21.58
2023-01-25T18:25:31.872Z,24.00
2023-01-25T18:30:36.859Z,24.23
2023-01-25T18:35:43.205Z,25.63
2023-01-25T18:40:46.028Z,26.75
2023-01-25T18:45:56.224Z,28.67
2023-01-25T18:51:01.459Z,29.00
2023-01-25T18:56:07.273Z,25.88
2023-01-25T19:01:13.092Z,29.40
2023-01-25T19:06:18.627Z,25.60
2023-01-25T19:11:22.750Z,23.10
2023-01-25T19:16:25.673Z,23.50
2023-01-25T19:21:30.228Z,25.20
2023-01-25T19:26:33.091Z,25.77
2023-01-25T19:31:37.303Z,24.73
2023-01-25T19:36:45.838Z,24.20
2023-01-25T19:41:49.132Z,24.65
2023-01-25T19:46:52.064Z,28.02
2023-01-25T19:51:57.535Z,28.30
2023-01-25T19:57:00.711Z,24.67
2023-01-25T20:02:04.074Z,22.75
2023-01-25T20:07:08.285Z,26.10
2023-01-25T20:12:11.192Z,26.35
2023-01-25T20:17:14.408Z,25.30
2023-01-25T20:22:19.385Z,25.55
2023-01-25T20:27:22.221Z,24.40
2023-01-25T20:32:32.673Z,24.77
2023-01-25T20:37:37.889Z,22.65
2023-01-25T20:42:40.723Z,22.58
2023-01-25T20:47:48.159Z,23.65
2023-01-25T20:53:41.564Z,21.40
2023-01-25T20:58:53.359Z,21.55
2023-01-25T21:04:27.108Z,23.63
2023-01-25T21:09:38.153Z,23.00
2023-01-25T21:14:50.236Z,24.33
2023-01-25T21:31:33.159Z,26.10
2023-01-25T21:37:10.652Z,26.38
2023-01-25T21:42:23.841Z,26.02
2023-01-25T21:47:49.485Z,28.15
2023-01-25T21:52:55.032Z,28.03
2023-01-25T21:57:58.391Z,26.80
2023-01-25T22:03:02.567Z,28.33
2023-01-25T22:08:05.681Z,29.05
2023-01-25T22:13:08.467Z,26.40
2023-01-25T22:18:12.519Z,26.48
2023-01-25T22:23:15.335Z,24.60
2023-01-25T22:28:20.687Z,25.98
2023-01-25T22:33:24.884Z,27.25
2023-01-25T22:38:27.690Z,25.27
2023-01-25T22:43:30.443Z,25.67
2023-01-25T22:48:35.822Z,25.77
2023-01-25T22:53:38.529Z,26.23
2023-01-25T22:58:43.751Z,25.08
2023-01-25T23:03:48.936Z,26.60
2023-01-25T23:08:52.151Z,26.95
2023-01-25T23:14:12.477Z,27.33
2023-01-25T23:19:17.231Z,26.75
2023-01-25T23:24:20.161Z,27.05
2023-01-25T23:29:22.912Z,26.73
2023-01-25T23:34:27.308Z,25.05
2023-01-25T23:39:30.278Z,25.70
2023-01-25T23:44:33.042Z,25.30
2023-01-25T23:49:37.153Z,23.42
2023-01-25T23:54:39.889Z,22.17
2023-01-25T23:59:42.938Z,21.08
